Time;durP1;ratioP1;P1;durP2;ratioP2;P2;SDS_P1;SDS_P2;PMS_P1;PMS_P2;Temp;Humidity;BMP_temperature;BMP_pressure;BME280_temperature;BME280_humidity;BME280_pressure;Samples;Min_cycle;Max_cycle;Signal;HPM_P1;HPM_P2
2023/06/19 00:02:12;;;;;;;0.50;0.20;;;;;;;22.96;76.31;99644.34;5053226;28;20494;-49
2023/06/19 00:04:38;;;;;;;0.50;0.20;;;;;;;22.82;77.18;99641.16;5053062;28;20871;-49
2023/06/19 00:07:05;;;;;;;0.50;0.20;;;;;;;22.82;77.46;99627.59;5052954;28;21011;-49
2023/06/19 00:09:32;;;;;;;0.50;0.20;;;;;;;22.94;75.83;99634.66;5053208;28;20862;-49
2023/06/19 00:11:59;;;;;;;0.50;0.20;;;;;;;22.96;75.92;99624.53;5053250;28;20473;-49
2023/06/19 00:14:26;;;;;;;0.50;0.20;;;;;;;22.85;76.61;99628.19;5052915;28;20462;-49
2023/06/19 00:16:52;;;;;;;0.50;0.30;;;;;;;22.92;76.43;99634.81;5053048;28;20561;-49
2023/06/19 00:19:19;;;;;;;0.50;0.20;;;;;;;22.96;76.34;99640.78;5052874;28;20494;-49
2023/06/19 00:21:45;;;;;;;0.50;0.20;;;;;;;22.97;75.99;99631.66;5052904;28;20475;-49
2023/06/19 00:24:12;;;;;;;0.50;0.20;;;;;;;22.99;76.44;99635.09;5052656;28;21057;-49
2023/06/19 00:26:39;;;;;;;0.50;0.23;;;;;;;22.91;76.83;99626.81;5052657;28;20482;-49
2023/06/19 00:29:07;;;;;;;0.50;0.20;;;;;;;22.44;77.47;99616.47;5052775;28;20466;-49
2023/06/19 00:31:37;;;;;;;0.50;0.20;;;;;;;22.23;78.39;99602.13;5052647;28;20466;-49
2023/06/19 00:34:03;;;;;;;0.50;0.20;;;;;;;22.48;77.02;99603.53;5052531;28;20964;-50
2023/06/19 00:36:30;;;;;;;0.50;0.20;;;;;;;21.99;79.41;99594.25;5052671;28;20482;-48
2023/06/19 00:38:56;;;;;;;0.50;0.20;;;;;;;21.97;78.87;99593.53;5052637;28;20463;-49
2023/06/19 00:41:24;;;;;;;0.50;0.20;;;;;;;22.25;77.14;99596.56;5052513;28;20558;-49
2023/06/19 00:43:53;;;;;;;0.50;0.20;;;;;;;22.52;76.07;99598.69;5049385;28;21064;-49
2023/06/19 00:46:20;;;;;;;0.50;0.20;;;;;;;22.52;75.37;99599.53;5052679;28;20528;-49
2023/06/19 00:48:47;;;;;;;0.50;0.20;;;;;;;22.72;75.72;99614.00;5052566;28;20580;-49
2023/06/19 00:51:14;;;;;;;0.50;0.20;;;;;;;23.22;73.52;99638.44;5052639;28;20466;-49
2023/06/19 00:53:40;;;;;;;0.50;0.20;;;;;;;22.68;75.91;99643.25;5051815;28;20956;-48
2023/06/19 00:56:07;;;;;;;0.50;0.20;;;;;;;22.79;75.56;99668.53;5052322;28;20486;-49
2023/06/19 00:58:35;;;;;;;0.50;0.20;;;;;;;22.74;76.00;99672.50;5051930;28;20960;-49
2023/06/19 01:01:01;;;;;;;0.50;0.20;;;;;;;22.85;75.04;99674.28;5052173;28;20493;-49
2023/06/19 01:03:35;;;;;;;0.50;0.20;;;;;;;22.90;74.43;99668.47;5052056;28;20487;-49
2023/06/19 01:06:08;;;;;;;0.50;0.30;;;;;;;22.93;74.82;99677.19;5052281;28;20514;-49
2023/06/19 01:08:53;;;;;;;0.50;0.20;;;;;;;23.07;73.57;99675.94;5051956;28;20964;-49
2023/06/19 01:11:23;;;;;;;0.50;0.20;;;;;;;22.59;76.10;99664.88;5051958;28;20552;-49
2023/06/19 01:13:58;;;;;;;0.50;0.20;;;;;;;22.36;76.94;99666.91;5044513;28;20893;-49
2023/06/19 01:16:25;;;;;;;0.50;0.20;;;;;;;22.14;77.72;99674.19;5052185;28;20478;-49
2023/06/19 01:18:53;;;;;;;0.50;0.20;;;;;;;22.08;78.33;99681.97;5044400;28;20462;-49
2023/06/19 01:21:19;;;;;;;0.50;0.20;;;;;;;22.26;78.15;99691.22;5051848;28;20462;-48
2023/06/19 01:23:46;;;;;;;0.50;0.20;;;;;;;22.26;77.97;99682.22;5051575;28;20504;-49
2023/06/19 01:26:14;;;;;;;0.60;0.40;;;;;;;22.13;77.88;99682.44;5051843;28;20946;-51
2023/06/19 01:28:42;;;;;;;0.50;0.20;;;;;;;22.20;77.99;99674.63;5051974;28;20512;-52
2023/06/19 01:31:15;;;;;;;0.50;0.20;;;;;;;22.23;78.22;99672.53;5049391;28;20557;-51
2023/06/19 01:33:44;;;;;;;0.50;0.20;;;;;;;22.24;78.34;99685.06;5051827;28;20484;-50
2023/06/19 01:36:11;;;;;;;0.50;0.20;;;;;;;22.13;78.34;99685.16;5051741;28;20552;-51
2023/06/19 01:38:39;;;;;;;0.50;0.20;;;;;;;21.76;80.81;99684.69;5051571;28;20466;-50
2023/06/19 01:41:08;;;;;;;0.50;0.20;;;;;;;21.65;81.00;99695.53;5045792;28;20943;-51
2023/06/19 01:43:35;;;;;;;0.50;0.20;;;;;;;21.65;81.16;99695.53;5049872;28;20938;-50
2023/06/19 01:46:02;;;;;;;0.50;0.23;;;;;;;21.35;82.40;99698.97;5051698;28;20486;-51
2023/06/19 01:48:28;;;;;;;0.50;0.20;;;;;;;21.52;81.71;99699.31;5047839;28;20477;-49
2023/06/19 01:50:55;;;;;;;0.50;0.20;;;;;;;21.44;82.13;99692.81;5051685;28;20463;-48
2023/06/19 01:53:22;;;;;;;0.50;0.20;;;;;;;21.51;81.87;99696.69;5051386;28;20985;-51
2023/06/19 01:55:48;;;;;;;0.50;0.20;;;;;;;21.63;80.87;99701.09;5052448;28;20475;-51
2023/06/19 01:58:15;;;;;;;0.50;0.20;;;;;;;21.75;80.47;99696.50;5052381;28;20473;-51
2023/06/19 02:00:41;;;;;;;0.50;0.20;;;;;;;21.66;81.71;99700.84;5051823;28;20471;-49
2023/06/19 02:03:08;;;;;;;0.50;0.20;;;;;;;21.62;81.61;99701.22;5051436;28;20469;-51
2023/06/19 02:05:39;;;;;;;0.50;0.20;;;;;;;21.59;81.41;99708.59;5051331;28;20517;-49
2023/06/19 02:08:06;;;;;;;0.50;0.20;;;;;;;21.74;81.02;99703.75;5055623;28;20462;-50
2023/06/19 02:10:32;;;;;;;0.50;0.20;;;;;;;21.84;80.18;99696.59;5055135;28;20545;-49
2023/06/19 02:12:59;;;;;;;3.60;2.50;;;;;;;21.73;80.62;99704.75;5055200;28;20462;-51
2023/06/19 02:15:25;;;;;;;0.50;0.20;;;;;;;21.83;79.99;99705.69;5055611;28;20528;-50
2023/06/19 02:17:54;;;;;;;0.50;0.20;;;;;;;21.74;80.82;99714.56;5051864;28;20486;-50
2023/06/19 02:20:24;;;;;;;0.50;0.20;;;;;;;21.87;80.33;99703.56;5049350;28;20562;-49
2023/06/19 02:22:51;;;;;;;0.50;0.20;;;;;;;21.85;80.48;99717.25;5053284;28;20470;-51
2023/06/19 02:25:18;;;;;;;0.50;0.20;;;;;;;21.88;79.86;99708.00;5055435;28;21076;-49
2023/06/19 02:27:45;;;;;;;0.50;0.20;;;;;;;21.85;80.31;99717.25;5054929;28;20510;-51
2023/06/19 02:30:12;;;;;;;0.50;0.20;;;;;;;21.77;80.23;99713.44;5055468;28;20485;-50
2023/06/19 02:32:38;;;;;;;0.50;0.20;;;;;;;21.75;80.41;99718.13;5055468;28;20463;-49
2023/06/19 02:35:10;;;;;;;0.50;0.20;;;;;;;21.89;79.77;99724.09;5055037;28;20458;-51
2023/06/19 02:37:37;;;;;;;0.50;0.20;;;;;;;22.07;79.69;99726.28;5055086;28;20509;-49
2023/06/19 02:40:05;;;;;;;0.50;0.20;;;;;;;21.95;79.11;99730.84;5055405;28;20497;-51
2023/06/19 02:42:31;;;;;;;0.50;0.20;;;;;;;22.00;79.01;99730.47;5055159;28;20958;-48
2023/06/19 02:45:02;;;;;;;0.50;0.20;;;;;;;22.00;79.41;99728.59;5054788;28;20548;-51
2023/06/19 02:47:31;;;;;;;0.50;0.20;;;;;;;22.05;79.21;99729.09;5054547;28;20548;-50
2023/06/19 02:49:59;;;;;;;0.50;0.20;;;;;;;21.92;79.27;99725.69;5054827;28;20498;-51
2023/06/19 02:52:26;;;;;;;0.50;0.20;;;;;;;22.05;79.02;99725.50;5054956;28;20858;-51
2023/06/19 02:54:53;;;;;;;0.50;0.20;;;;;;;22.00;79.09;99723.19;5049281;28;20462;-51
2023/06/19 02:57:20;;;;;;;0.50;0.20;;;;;;;22.22;77.67;99748.50;5054984;28;20525;-52
2023/06/19 02:59:47;;;;;;;0.50;0.20;;;;;;;22.40;76.87;99750.47;5054655;28;20467;-52
2023/06/19 03:02:13;;;;;;;0.50;0.20;;;;;;;22.33;77.07;99757.38;5054975;28;20520;-52
2023/06/19 03:04:43;;;;;;;0.50;0.20;;;;;;;22.20;78.00;99748.59;5054933;28;20490;-50
2023/06/19 03:07:10;;;;;;;0.50;0.20;;;;;;;22.35;76.97;99754.56;5054382;28;20525;-50
2023/06/19 03:09:37;;;;;;;0.50;0.20;;;;;;;22.27;78.20;99763.34;5054520;28;20463;-51
2023/06/19 03:12:03;;;;;;;0.50;0.20;;;;;;;22.30;78.41;99764.91;5054638;28;20524;-51
2023/06/19 03:14:30;;;;;;;0.50;0.20;;;;;;;22.37;78.12;99766.13;5054944;28;20520;-51
2023/06/19 03:16:56;;;;;;;0.50;0.20;;;;;;;22.52;77.73;99767.50;5054372;28;20482;-51
2023/06/19 03:19:23;;;;;;;0.50;0.20;;;;;;;22.42;78.24;99769.28;5054411;28;20959;-51
2023/06/19 03:21:50;;;;;;;0.50;0.20;;;;;;;22.36;78.45;99767.97;5053728;28;21002;-49
2023/06/19 03:24:16;;;;;;;0.50;0.20;;;;;;;22.38;78.02;99775.97;5053776;28;20490;-49
2023/06/19 03:26:43;;;;;;;0.50;0.20;;;;;;;22.40;78.20;99787.53;5053659;28;20486;-49
2023/06/19 03:29:09;;;;;;;0.50;0.20;;;;;;;22.37;78.43;99788.66;5053858;28;20485;-50
2023/06/19 03:31:36;;;;;;;0.50;0.20;;;;;;;22.62;77.50;99792.81;5053664;28;20467;-49
2023/06/19 03:34:02;;;;;;;0.50;0.20;;;;;;;22.66;76.90;99809.66;5053602;28;20497;-49
2023/06/19 03:36:28;;;;;;;0.50;0.20;;;;;;;23.00;75.60;99808.47;5053255;28;20548;-49
2023/06/19 03:38:55;;;;;;;0.50;0.30;;;;;;;22.72;76.07;99818.09;5053706;28;20549;-49
2023/06/19 03:41:22;;;;;;;0.50;0.30;;;;;;;22.82;76.64;99814.63;5053893;28;21002;-49
2023/06/19 03:43:48;;;;;;;0.50;0.20;;;;;;;22.76;75.98;99819.59;5053383;28;20467;-49
2023/06/19 03:46:15;;;;;;;0.50;0.20;;;;;;;22.75;75.99;99817.88;5053345;28;20487;-50
2023/06/19 03:48:41;;;;;;;0.50;0.20;;;;;;;22.65;76.53;99822.34;5053442;28;20463;-49
2023/06/19 03:51:07;;;;;;;0.50;0.20;;;;;;;22.75;76.43;99817.88;5053658;28;20462;-49
2023/06/19 03:53:34;;;;;;;0.50;0.20;;;;;;;22.61;77.13;99818.16;5053377;28;20518;-49
2023/06/19 03:56:00;;;;;;;0.50;0.20;;;;;;;22.59;77.08;99822.88;5053326;28;20486;-51
2023/06/19 03:58:27;;;;;;;0.50;0.20;;;;;;;22.66;77.38;99832.19;5053325;28;20786;-49
2023/06/19 04:00:53;;;;;;;0.50;0.20;;;;;;;22.46;77.79;99827.63;5053160;28;20991;-50
2023/06/19 04:03:20;;;;;;;0.50;0.20;;;;;;;22.50;77.53;99837.22;5053454;28;20459;-51
2023/06/19 04:05:47;;;;;;;0.50;0.20;;;;;;;22.64;77.36;99834.19;5053145;28;20505;-51
2023/06/19 04:08:13;;;;;;;0.50;0.20;;;;;;;22.73;76.89;99832.50;5048629;28;20466;-51
2023/06/19 04:10:40;;;;;;;0.50;0.20;;;;;;;22.56;77.88;99841.25;5054333;28;20516;-51
2023/06/19 04:13:06;;;;;;;0.50;0.20;;;;;;;22.64;77.46;99838.75;5054332;28;20465;-51
2023/06/19 04:15:35;;;;;;;0.50;0.20;;;;;;;22.80;76.76;99846.41;5052662;28;20479;-51
2023/06/19 04:18:02;;;;;;;0.50;0.20;;;;;;;22.63;78.02;99851.44;5052915;28;20463;-51
2023/06/19 04:20:28;;;;;;;0.50;0.20;;;;;;;22.84;76.97;99845.19;5052945;28;20471;-51
2023/06/19 04:22:55;;;;;;;0.50;0.20;;;;;;;22.89;76.84;99845.63;5052834;28;20463;-51
2023/06/19 04:25:21;;;;;;;0.50;0.20;;;;;;;22.90;76.83;99850.09;5052967;28;20548;-50
2023/06/19 04:27:48;;;;;;;0.50;0.20;;;;;;;23.03;76.17;99851.59;5052823;28;20482;-51
2023/06/19 04:30:14;;;;;;;0.50;0.20;;;;;;;23.03;75.89;99856.16;5052236;28;20489;-50
2023/06/19 04:32:41;;;;;;;0.50;0.30;;;;;;;;;;5052551;28;20560;-50
2023/06/19 04:35:09;;;;;;;0.50;0.20;;;;;;;23.64;74.73;99845.31;5052591;28;20549;-51
2023/06/19 04:37:36;;;;;;;0.50;0.27;;;;;;;23.50;74.29;99846.53;5052166;28;20573;-51
2023/06/19 04:40:07;;;;;;;0.50;0.20;;;;;;;23.71;72.84;99842.88;5052769;28;20510;-50
2023/06/19 04:42:34;;;;;;;0.50;0.20;;;;;;;24.01;72.58;99842.84;5045186;28;20535;-51
2023/06/19 04:45:00;;;;;;;0.50;0.20;;;;;;;24.19;71.92;99843.84;5052406;28;20581;-51
2023/06/19 04:47:27;;;;;;;0.50;0.20;;;;;;;24.66;70.79;99838.56;5051987;28;20490;-50
2023/06/19 04:50:09;;;;;;;0.50;0.20;;;;;;;24.19;72.61;99840.28;5052234;28;20490;-51
2023/06/19 04:52:35;;;;;;;0.50;0.20;;;;;;;23.88;73.49;99840.38;5052376;28;20485;-50
2023/06/19 04:55:02;;;;;;;0.70;0.70;;;;;;;24.37;72.12;99832.31;5052420;28;20517;-51
2023/06/19 04:57:28;;;;;;;0.50;0.30;;;;;;;24.07;72.94;99835.97;5051611;28;20855;-50
2023/06/19 04:59:55;;;;;;;0.50;0.20;;;;;;;24.22;73.08;99819.13;5046660;28;20466;-51
2023/06/19 05:02:23;;;;;;;0.60;0.60;;;;;;;24.55;72.55;99827.03;5052139;28;20467;-51
2023/06/19 05:04:50;;;;;;;0.50;0.20;;;;;;;24.22;73.48;99837.28;5043829;28;20501;-51
2023/06/19 05:07:17;;;;;;;0.50;0.20;;;;;;;24.61;71.70;99826.44;5044994;28;20483;-51
2023/06/19 05:09:44;;;;;;;0.50;0.20;;;;;;;24.16;73.19;99827.00;5051167;28;20549;-51
2023/06/19 05:12:11;;;;;;;0.50;0.30;;;;;;;23.98;74.43;99829.50;5049848;28;20516;-51
2023/06/19 05:14:37;;;;;;;0.50;0.20;;;;;;;24.00;74.56;99832.13;5051975;28;20480;-50
2023/06/19 05:17:09;;;;;;;0.50;0.20;;;;;;;24.48;73.53;99827.59;5051974;28;20582;-51
2023/06/19 05:19:36;;;;;;;0.50;0.20;;;;;;;24.59;72.88;99831.16;5051871;28;20463;-51
2023/06/19 05:22:02;;;;;;;0.50;0.20;;;;;;;24.75;72.05;99829.56;5052269;28;20484;-51
2023/06/19 05:24:29;;;;;;;0.50;0.30;;;;;;;24.77;71.94;99832.97;5046794;28;20491;-50
2023/06/19 05:26:55;;;;;;;0.50;0.20;;;;;;;24.84;71.66;99832.41;5047925;28;20488;-51
2023/06/19 05:29:22;;;;;;;0.50;0.20;;;;;;;24.65;72.21;99844.16;5049227;28;20545;-51
2023/06/19 05:31:48;;;;;;;0.50;0.30;;;;;;;24.88;72.04;99847.44;5051587;28;20473;-51
2023/06/19 05:34:14;;;;;;;0.50;0.20;;;;;;;25.00;70.94;99847.16;5052012;28;20463;-51
2023/06/19 05:36:41;;;;;;;0.50;0.20;;;;;;;25.30;70.56;99848.75;5051584;28;20486;-51
2023/06/19 05:39:09;;;;;;;0.50;0.20;;;;;;;24.87;71.79;99853.88;5051906;28;20554;-51
2023/06/19 05:41:36;;;;;;;0.50;0.30;;;;;;;24.79;72.30;99865.47;5053816;28;20462;-51
2023/06/19 05:44:02;;;;;;;0.50;0.20;;;;;;;25.05;71.68;99857.56;5059483;28;20857;-51
2023/06/19 05:46:29;;;;;;;0.50;0.20;;;;;;;25.30;70.40;99853.34;5058731;28;20498;-51
2023/06/19 05:48:55;;;;;;;0.50;0.20;;;;;;;25.04;71.41;99851.28;5058242;28;20471;-50
2023/06/19 05:51:22;;;;;;;0.50;0.20;;;;;;;25.39;69.97;99860.63;5052221;28;20498;-51
2023/06/19 05:53:49;;;;;;;0.50;0.30;;;;;;;25.20;70.96;99855.25;5055661;28;20943;-51
2023/06/19 05:56:16;;;;;;;0.50;0.20;;;;;;;25.41;69.66;99866.78;5055858;28;20574;-50
2023/06/19 05:58:43;;;;;;;0.50;0.20;;;;;;;25.06;71.20;99865.59;5055142;28;20466;-51
2023/06/19 06:01:09;;;;;;;0.50;0.20;;;;;;;25.20;70.04;99866.13;5055746;28;20554;-51
2023/06/19 06:03:36;;;;;;;0.50;0.20;;;;;;;25.21;70.11;99871.41;5055722;28;20538;-50
2023/06/19 06:06:03;;;;;;;0.50;0.30;;;;;;;25.43;69.17;99872.94;5055465;28;20533;-51
2023/06/19 06:08:30;;;;;;;0.50;0.30;;;;;;;25.62;68.67;99871.97;5055364;28;20903;-51
2023/06/19 06:10:57;;;;;;;0.50;0.27;;;;;;;25.59;68.22;99862.25;5055423;28;20961;-50
2023/06/19 06:13:23;;;;;;;0.50;0.30;;;;;;;25.84;67.82;99884.38;5052889;28;20463;-51
2023/06/19 06:15:51;;;;;;;0.50;0.20;;;;;;;25.96;67.56;99877.72;5037314;28;20459;-51
2023/06/19 06:18:17;;;;;;;0.83;0.83;;;;;;;25.71;68.54;99879.28;5055619;28;20462;-51
2023/06/19 06:20:43;;;;;;;0.50;0.20;;;;;;;25.95;68.06;99881.47;5055317;28;20536;-50
2023/06/19 06:23:10;;;;;;;0.50;0.20;;;;;;;26.54;65.88;99878.19;5043619;28;20525;-51
2023/06/19 06:25:37;;;;;;;0.50;0.20;;;;;;;26.28;66.08;99882.66;5053136;28;20533;-51
2023/06/19 06:28:03;;;;;;;0.50;0.30;;;;;;;26.99;64.19;99890.84;5055239;28;20497;-51
2023/06/19 06:30:30;;;;;;;0.50;0.20;;;;;;;26.71;64.35;99891.97;5054909;28;20472;-51
2023/06/19 06:32:56;;;;;;;0.50;0.20;;;;;;;26.93;64.18;99896.09;5050988;28;20474;-51
2023/06/19 06:35:23;;;;;;;0.50;0.20;;;;;;;26.95;63.38;99900.34;5051131;28;20939;-49
2023/06/19 06:37:49;;;;;;;0.50;0.20;;;;;;;26.95;63.59;99896.78;5054738;28;20573;-49
2023/06/19 06:40:16;;;;;;;0.50;0.20;;;;;;;26.67;63.94;99891.44;5054898;28;20466;-49
2023/06/19 06:42:42;;;;;;;0.50;0.20;;;;;;;27.26;62.58;99892.59;5054612;28;20459;-49
2023/06/19 06:45:09;;;;;;;0.50;0.20;;;;;;;27.13;62.50;99898.47;5054625;28;20498;-50
2023/06/19 06:47:36;;;;;;;0.50;0.30;;;;;;;26.63;63.96;99895.50;5068002;23;20511;-54
2023/06/19 06:50:03;;;;;;;1.03;1.03;;;;;;;26.86;63.60;99898.56;5037041;28;20470;-54
2023/06/19 06:52:30;;;;;;;0.50;0.30;;;;;;;27.09;62.87;99908.00;5054083;28;20539;-54
2023/06/19 06:54:57;;;;;;;0.50;0.30;;;;;;;26.72;63.83;99899.97;5054500;28;20959;-54
2023/06/19 06:57:23;;;;;;;0.50;0.30;;;;;;;27.05;63.25;99905.75;5054576;28;20486;-54
2023/06/19 06:59:49;;;;;;;0.50;0.30;;;;;;;26.70;63.86;99906.63;5054690;28;20517;-54
2023/06/19 07:02:16;;;;;;;0.97;0.97;;;;;;;26.60;64.54;99909.44;5054533;28;20467;-54
2023/06/19 07:04:42;;;;;;;0.50;0.30;;;;;;;26.15;66.24;99920.31;5054327;28;20540;-54
2023/06/19 07:07:09;;;;;;;0.50;0.30;;;;;;;26.04;66.93;99915.97;5054374;28;20839;-54
2023/06/19 07:09:35;;;;;;;0.50;0.20;;;;;;;26.67;65.05;99921.44;5054119;28;20506;-54
2023/06/19 07:12:04;;;;;;;0.50;0.20;;;;;;;26.44;65.65;99928.34;5054550;28;20467;-54
2023/06/19 07:14:31;;;;;;;0.50;0.30;;;;;;;26.62;65.08;99923.78;5054197;28;20478;-54
2023/06/19 07:16:57;;;;;;;0.50;0.20;;;;;;;26.99;63.74;99923.56;5054368;28;20529;-54
2023/06/19 07:19:24;;;;;;;0.50;0.30;;;;;;;27.10;63.19;99920.63;5054266;28;20826;-54
2023/06/19 07:21:51;;;;;;;0.53;0.37;;;;;;;27.42;61.92;99919.16;5054255;28;20955;-54
2023/06/19 07:24:18;;;;;;;0.50;0.20;;;;;;;26.81;63.42;99923.59;5054122;28;21017;-54
2023/06/19 07:26:46;;;;;;;0.50;0.20;;;;;;;26.91;63.83;99920.81;5054264;28;20502;-54
2023/06/19 07:29:13;;;;;;;0.50;0.23;;;;;;;26.90;63.36;99921.81;5054358;28;20473;-54
2023/06/19 07:31:42;;;;;;;0.50;0.27;;;;;;;26.75;63.53;99926.97;5053826;28;20524;-54
2023/06/19 07:34:08;;;;;;;0.50;0.20;;;;;;;26.96;62.72;99932.09;5053694;28;20959;-54
2023/06/19 07:36:35;;;;;;;0.50;0.30;;;;;;;26.81;63.40;99941.84;5053592;28;20577;-54
2023/06/19 07:39:02;;;;;;;0.50;0.30;;;;;;;27.00;63.50;99932.63;5053977;28;20524;-54
2023/06/19 07:41:29;;;;;;;0.50;0.20;;;;;;;27.00;63.34;99927.16;5053848;28;20474;-54
2023/06/19 07:43:55;;;;;;;0.50;0.30;;;;;;;26.95;63.84;99933.09;5053841;28;20490;-54
2023/06/19 07:46:21;;;;;;;0.50;0.23;;;;;;;27.08;63.68;99933.59;5053566;28;20587;-54
2023/06/19 07:48:48;;;;;;;0.50;0.23;;;;;;;27.67;62.71;99939.28;5053776;28;20551;-54
2023/06/19 07:51:14;;;;;;;0.50;0.30;;;;;;;27.90;60.42;99948.66;5053665;28;20912;-54
2023/06/19 07:53:43;;;;;;;0.50;0.30;;;;;;;27.49;61.58;99943.94;5053818;28;20475;-54
2023/06/19 07:56:09;;;;;;;0.50;0.30;;;;;;;27.75;61.76;99947.53;5053692;28;20518;-54
2023/06/19 07:58:36;;;;;;;0.50;0.30;;;;;;;27.88;61.21;99933.44;5053391;28;20502;-54
2023/06/19 08:01:02;;;;;;;0.50;0.30;;;;;;;28.32;59.79;99945.94;5053657;28;20485;-54
2023/06/19 08:03:30;;;;;;;0.50;0.30;;;;;;;28.27;59.78;99947.47;5052734;28;20467;-54
2023/06/19 08:05:57;;;;;;;0.50;0.30;;;;;;;28.72;59.32;99958.00;5053072;28;20502;-54
2023/06/19 08:08:23;;;;;;;0.50;0.20;;;;;;;28.50;56.99;99958.63;5053446;28;20546;-54
2023/06/19 08:10:50;;;;;;;0.50;0.30;;;;;;;27.95;58.65;99957.19;5053151;28;21024;-54
2023/06/19 08:13:16;;;;;;;0.50;0.20;;;;;;;28.30;59.86;99960.81;5053268;28;20490;-54
2023/06/19 08:15:44;;;;;;;0.50;0.30;;;;;;;28.13;58.71;99968.06;5053016;28;20485;-54
2023/06/19 08:18:10;;;;;;;0.50;0.30;;;;;;;28.21;59.22;99964.47;5053145;28;20553;-54
2023/06/19 08:20:37;;;;;;;0.50;0.30;;;;;;;28.47;57.65;99958.97;5052830;28;20470;-54
2023/06/19 08:23:04;;;;;;;0.50;0.30;;;;;;;28.15;57.49;99960.53;5053192;28;20466;-54
2023/06/19 08:25:32;;;;;;;0.50;0.30;;;;;;;28.24;57.49;99950.50;5052677;28;20491;-54
2023/06/19 08:27:58;;;;;;;0.50;0.30;;;;;;;28.44;57.95;99960.16;5052603;28;20896;-54
2023/06/19 08:30:25;;;;;;;0.50;0.30;;;;;;;28.72;57.04;99968.09;5052949;28;20470;-54
2023/06/19 08:32:53;;;;;;;1.20;1.10;;;;;;;28.39;57.98;99957.06;5044749;28;20900;-54
2023/06/19 08:35:19;;;;;;;0.50;0.30;;;;;;;28.60;59.42;99957.44;5052820;28;20459;-54
2023/06/19 08:37:46;;;;;;;0.50;0.30;;;;;;;28.87;58.06;99958.22;5052157;28;20556;-54
2023/06/19 08:40:12;;;;;;;0.50;0.30;;;;;;;28.70;56.25;99960.03;5052622;28;20493;-55
2023/06/19 08:42:39;;;;;;;0.50;0.30;;;;;;;28.73;55.14;99967.06;5052422;28;20463;-54
2023/06/19 08:45:07;;;;;;;0.50;0.30;;;;;;;28.35;56.26;99955.69;5052598;28;20467;-54
2023/06/19 08:47:34;;;;;;;0.50;0.30;;;;;;;28.39;56.28;99956.22;5052239;28;20490;-54
2023/06/19 08:50:00;;;;;;;0.50;0.40;;;;;;;28.74;57.06;99964.16;5052669;28;20542;-54
2023/06/19 08:52:28;;;;;;;0.50;0.30;;;;;;;28.78;55.26;99964.66;5052384;28;21018;-54
2023/06/19 08:54:55;;;;;;;0.50;0.30;;;;;;;28.98;53.72;99963.34;5052174;28;20477;-54
2023/06/19 08:57:21;;;;;;;0.50;0.30;;;;;;;28.99;54.19;99954.13;5052220;28;20486;-54
2023/06/19 08:59:50;;;;;;;0.50;0.30;;;;;;;29.24;54.24;99973.28;5052076;28;20963;-54
2023/06/19 09:02:16;;;;;;;0.50;0.30;;;;;;;29.18;53.08;99969.34;5052011;28;20502;-54
2023/06/19 09:04:43;;;;;;;0.50;0.30;;;;;;;28.95;53.70;99968.31;5052121;28;20463;-55
2023/06/19 09:07:13;;;;;;;0.50;0.30;;;;;;;29.15;53.64;99966.94;5052197;28;20552;-54
2023/06/19 09:09:45;;;;;;;0.50;0.30;;;;;;;29.27;53.99;99953.78;5052424;28;20512;-54
2023/06/19 09:12:14;;;;;;;0.50;0.30;;;;;;;29.59;52.07;99963.84;5052299;28;20466;-54
2023/06/19 09:14:45;;;;;;;0.50;0.30;;;;;;;29.50;51.74;99957.56;5051722;28;20897;-54
2023/06/19 09:17:17;;;;;;;0.50;0.30;;;;;;;29.46;52.59;99969.81;5052274;28;20479;-54
2023/06/19 09:19:48;;;;;;;0.50;0.40;;;;;;;30.00;50.35;99962.69;5051983;28;20493;-54
2023/06/19 09:22:18;;;;;;;0.50;0.30;;;;;;;30.01;50.73;99949.84;5052001;28;20471;-54
2023/06/19 09:24:45;;;;;;;0.50;0.30;;;;;;;30.10;49.08;99954.31;5051869;28;20561;-54
2023/06/19 09:27:18;;;;;;;0.50;0.30;;;;;;;29.88;48.56;99952.28;5051681;28;20552;-54
2023/06/19 09:29:50;;;;;;;0.50;0.30;;;;;;;30.02;49.96;99957.91;5052169;28;20459;-54
2023/06/19 09:32:25;;;;;;;0.50;0.30;;;;;;;30.40;48.60;99965.47;5052029;28;20459;-54
2023/06/19 09:34:53;;;;;;;0.50;0.30;;;;;;;30.06;49.06;99953.81;5051926;28;20477;-54
2023/06/19 09:37:28;;;;;;;0.60;0.60;;;;;;;30.22;47.73;99944.66;5051759;28;20488;-54
2023/06/19 09:39:54;;;;;;;0.50;0.30;;;;;;;30.02;50.32;99943.34;5044135;28;20473;-54
2023/06/19 09:42:32;;;;;;;0.50;0.30;;;;;;;30.27;48.53;99944.97;5051640;28;20467;-54
2023/06/19 09:45:01;;;;;;;0.50;0.30;;;;;;;30.02;47.22;99954.31;5051710;28;20433;-54
2023/06/19 09:47:36;;;;;;;0.50;0.30;;;;;;;30.18;47.74;99948.78;5051102;28;20559;-54
2023/06/19 09:50:06;;;;;;;0.50;0.30;;;;;;;30.65;46.97;99953.34;5051670;28;20847;-54
2023/06/19 09:52:33;;;;;;;0.50;0.30;;;;;;;30.00;47.96;99951.72;5051829;28;20477;-54
2023/06/19 09:55:06;;;;;;;0.60;0.40;;;;;;;30.23;48.25;99949.09;5051793;28;20470;-54
2023/06/19 09:57:33;;;;;;;0.50;0.30;;;;;;;30.24;47.86;99950.81;5051728;28;20479;-54
2023/06/19 10:00:11;;;;;;;0.50;0.30;;;;;;;30.13;47.52;99953.09;5051589;28;20554;-54
2023/06/19 10:02:44;;;;;;;0.50;0.30;;;;;;;30.29;46.09;99951.16;5051275;28;20538;-54
2023/06/19 10:05:14;;;;;;;0.50;0.30;;;;;;;30.71;45.41;99949.03;5051500;28;20990;-54
2023/06/19 10:07:44;;;;;;;0.50;0.30;;;;;;;30.87;45.46;99951.66;5051408;28;20485;-54
2023/06/19 10:10:21;;;;;;;0.50;0.30;;;;;;;30.60;45.82;99955.78;5051436;28;20462;-54
2023/06/19 10:12:49;;;;;;;0.50;0.30;;;;;;;30.51;46.48;99943.13;5051398;28;20971;-54
2023/06/19 10:15:23;;;;;;;0.50;0.30;;;;;;;29.85;47.25;99936.19;5051703;28;20501;-54
2023/06/19 10:17:59;;;;;;;0.50;0.30;;;;;;;30.70;46.12;99939.94;5051348;28;20456;-54
2023/06/19 10:20:35;;;;;;;0.50;0.30;;;;;;;31.07;45.83;99950.13;5051260;28;20433;-55
2023/06/19 10:23:17;;;;;;;0.50;0.30;;;;;;;30.93;45.60;99949.03;5046093;28;20835;-55
2023/06/19 10:25:47;;;;;;;0.70;0.70;;;;;;;30.87;45.46;99948.91;5051189;28;20496;-54
2023/06/19 10:28:22;;;;;;;0.50;0.30;;;;;;;30.56;45.14;99947.03;5054092;28;20509;-54
2023/06/19 10:31:00;;;;;;;0.50;0.30;;;;;;;30.61;44.93;99938.25;5054979;28;20537;-54
2023/06/19 10:33:28;;;;;;;0.50;0.30;;;;;;;30.04;46.54;99946.78;5054964;28;20440;-55
2023/06/19 10:35:55;;;;;;;0.50;0.30;;;;;;;30.20;45.98;99948.63;5054888;28;20541;-54
2023/06/19 10:38:21;;;;;;;0.50;0.30;;;;;;;30.13;46.34;99942.13;5055175;28;20466;-54
2023/06/19 10:40:48;;;;;;;0.50;0.30;;;;;;;30.46;46.19;99945.56;5054605;28;20939;-54
2023/06/19 10:43:27;;;;;;;0.50;0.30;;;;;;;30.87;44.74;99938.78;5054973;28;20436;-54
2023/06/19 10:45:54;;;;;;;0.50;0.30;;;;;;;30.51;45.53;99946.72;5054600;28;20500;-54
2023/06/19 10:48:23;;;;;;;0.50;0.30;;;;;;;30.24;44.33;99948.06;5054736;28;20462;-54
2023/06/19 10:50:50;;;;;;;0.50;0.30;;;;;;;30.63;43.80;99941.72;5054887;28;20494;-54
2023/06/19 10:53:27;;;;;;;0.50;0.30;;;;;;;30.54;44.81;99935.38;5054485;28;20963;-54
2023/06/19 10:55:58;;;;;;;0.50;0.30;;;;;;;30.00;45.86;99932.53;5054592;28;20519;-54
2023/06/19 10:58:26;;;;;;;0.50;0.30;;;;;;;30.51;46.26;99934.88;5054375;28;20835;-54
2023/06/19 11:00:53;;;;;;;0.50;0.30;;;;;;;31.16;45.01;99935.28;5054641;28;20462;-54
2023/06/19 11:03:20;;;;;;;0.50;0.30;;;;;;;31.18;46.09;99929.59;5054595;28;20496;-54
2023/06/19 11:05:48;;;;;;;0.50;0.30;;;;;;;30.59;46.95;99926.63;5054257;28;20525;-54
2023/06/19 11:08:19;;;;;;;0.50;0.30;;;;;;;30.96;45.20;99918.44;5054420;28;20470;-54
2023/06/19 11:10:46;;;;;;;0.50;0.30;;;;;;;30.91;45.53;99920.91;5054169;28;21090;-54
2023/06/19 11:13:17;;;;;;;0.50;0.30;;;;;;;31.23;45.23;99924.44;5054329;28;20441;-54
2023/06/19 11:15:44;;;;;;;0.50;0.30;;;;;;;31.60;44.08;99928.19;5054240;28;21230;-54
2023/06/19 11:18:14;;;;;;;0.50;0.30;;;;;;;31.67;44.29;99920.91;5036712;28;20516;-54
2023/06/19 11:20:49;;;;;;;0.50;0.30;;;;;;;30.70;45.31;99911.63;5054569;28;20462;-54
2023/06/19 11:23:26;;;;;;;0.50;0.30;;;;;;;30.73;45.95;99909.41;5049515;28;20437;-54
2023/06/19 11:25:53;;;;;;;0.50;0.30;;;;;;;31.47;44.29;99912.34;5053866;28;20462;-54
2023/06/19 11:28:22;;;;;;;0.50;0.30;;;;;;;30.95;43.98;99911.25;5053980;28;20458;-55
2023/06/19 11:30:58;;;;;;;0.50;0.30;;;;;;;31.26;44.59;99906.75;5053919;28;20441;-55
2023/06/19 11:33:25;;;;;;;0.50;0.30;;;;;;;31.86;42.67;99906.59;5053874;28;20944;-54
2023/06/19 11:35:53;;;;;;;0.50;0.30;;;;;;;31.38;43.99;99903.31;5050983;28;20438;-55
2023/06/19 11:38:27;;;;;;;0.50;0.30;;;;;;;31.03;42.91;99907.59;5053781;28;20514;-54